Time;durP1;ratioP1;P1;durP2;ratioP2;P2;SDS_P1;SDS_P2;PMS_P1;PMS_P2;Temp;Humidity;BMP_temperature;BMP_pressure;BME280_temperature;BME280_humidity;BME280_pressure;Samples;Min_cycle;Max_cycle;Signal;HPM_P1;HPM_P2
2024/03/11 00:00:17;;;;;;;0.52;0.52;;;;;;;;;;5096147;28;20044;-81
2024/03/11 00:02:44;;;;;;;0.40;0.40;;;;;;;;;;5097045;28;20047;-82
2024/03/11 00:05:11;;;;;;;0.50;0.43;;;;;;;;;;5079334;28;20578;-80
2024/03/11 00:07:38;;;;;;;0.68;0.55;;;;;;;;;;5114383;28;20114;-81
2024/03/11 00:10:05;;;;;;;0.45;0.45;;;;;;;;;;5114128;28;20550;-80
2024/03/11 00:12:38;;;;;;;2.33;0.80;;;;;;;;;;5095850;28;20044;-81
2024/03/11 00:15:07;;;;;;;;;;;;;;;;;;5080426;28;20051;-82
2024/03/11 00:17:33;;;;;;;0.40;0.40;;;;;;;;;;5095759;28;19921;-81
2024/03/11 00:19:59;;;;;;;0.30;0.30;;;;;;;;;;5112769;28;20051;-81
2024/03/11 00:22:25;;;;;;;0.30;0.30;;;;;;;;;;5079120;28;20042;-82
2024/03/11 00:24:52;;;;;;;0.70;0.65;;;;;;;;;;5078861;28;20039;-81
2024/03/11 00:27:18;;;;;;;1.20;0.75;;;;;;;;;;5112157;28;20122;-81
2024/03/11 00:29:44;;;;;;;0.70;0.70;;;;;;;;;;5095449;28;20122;-82
2024/03/11 00:32:14;;;;;;;0.90;0.50;;;;;;;;;;5095681;28;20035;-81
2024/03/11 00:34:42;;;;;;;0.40;0.40;;;;;;;;;;5112614;28;20122;-82
2024/03/11 00:37:12;;;;;;;0.50;0.50;;;;;;;;;;5096195;28;20059;-82
2024/03/11 00:39:38;;;;;;;1.45;1.20;;;;;;;;;;5096108;28;20071;-82
2024/03/11 00:42:04;;;;;;;0.30;0.30;;;;;;;;;;5095569;28;20066;-81
2024/03/11 00:44:30;;;;;;;1.15;0.88;;;;;;;;;;5112278;28;20075;-82
2024/03/11 00:46:56;;;;;;;0.60;0.60;;;;;;;;;;5112363;28;20048;-81
2024/03/11 00:49:26;;;;;;;0.32;0.32;;;;;;;;;;5078351;28;20495;-82
2024/03/11 00:51:52;;;;;;;0.90;0.90;;;;;;;;;;5095046;28;20092;-82
2024/03/11 00:54:18;;;;;;;1.45;0.28;;;;;;;;;;5078266;28;20054;-82
2024/03/11 00:56:44;;;;;;;0.22;0.22;;;;;;;;;;5095121;28;20036;-82
2024/03/11 00:59:10;;;;;;;0.30;0.20;;;;;;;;;;5095059;28;20050;-82
2024/03/11 01:01:36;;;;;;;0.55;0.55;;;;;;;;;;5078157;28;20031;-81
2024/03/11 01:04:03;;;;;;;1.17;0.52;;;;;;;;;;5095038;28;20097;-81
2024/03/11 01:06:29;;;;;;;0.85;0.55;;;;;;;;;;5095335;28;20145;-82
2024/03/11 01:08:58;;;;;;;0.40;0.40;;;;;;;;;;5079171;28;20495;-81
2024/03/11 01:11:24;;;;;;;0.75;0.73;;;;;;;;;;5112838;28;20082;-82
2024/03/11 01:13:50;;;;;;;0.43;0.43;;;;;;;;;;5095030;28;20122;-82
2024/03/11 01:16:16;;;;;;;0.65;0.65;;;;;;;;;;5094796;28;20039;-81
2024/03/11 01:18:43;;;;;;;0.47;0.47;;;;;;;;;;5077935;28;20059;-82
2024/03/11 01:21:09;;;;;;;0.20;0.20;;;;;;;;;;5111582;28;20036;-81
2024/03/11 01:23:36;;;;;;;0.47;0.47;;;;;;;;;;5094935;28;20051;-82
2024/03/11 01:26:02;;;;;;;0.32;0.30;;;;;;;;;;5112837;28;20050;-83
2024/03/11 01:28:28;;;;;;;0.52;0.40;;;;;;;;;;5077933;28;20503;-82
2024/03/11 01:30:54;;;;;;;0.82;0.50;;;;;;;;;;5094563;28;20039;-82
2024/03/11 01:33:20;;;;;;;0.10;0.10;;;;;;;;;;5111426;28;20482;-82
2024/03/11 01:35:46;;;;;;;0.38;0.30;;;;;;;;;;5077631;28;20093;-82
2024/03/11 01:38:12;;;;;;;0.40;0.30;;;;;;;;;;5094451;28;20041;-82
2024/03/11 01:40:38;;;;;;;0.73;0.70;;;;;;;;;;5111178;28;20119;-82
2024/03/11 01:43:04;;;;;;;1.02;1.02;;;;;;;;;;5078057;28;20035;-82
2024/03/11 01:45:32;;;;;;;0.77;0.77;;;;;;;;;;5094954;28;20035;-82
2024/03/11 01:47:58;;;;;;;1.25;0.77;;;;;;;;;;5111498;28;20044;-82
2024/03/11 01:50:24;;;;;;;1.10;0.30;;;;;;;;;;5077772;28;20368;-82
2024/03/11 01:52:51;;;;;;;0.30;0.30;;;;;;;;;;5077538;28;20067;-82
2024/03/11 01:55:18;;;;;;;0.88;0.47;;;;;;;;;;5094262;28;20043;-82
2024/03/11 01:57:46;;;;;;;0.40;0.40;;;;;;;;;;5094667;28;20032;-82
2024/03/11 02:00:12;;;;;;;3.83;0.75;;;;;;;;;;5111137;28;20036;-82
2024/03/11 02:02:39;;;;;;;0.25;0.25;;;;;;;;;;5094310;28;20056;-82
2024/03/11 02:05:13;;;;;;;0.30;0.30;;;;;;;;;;5077843;28;20047;-83
2024/03/11 02:07:40;;;;;;;0.47;0.47;;;;;;;;;;5095257;28;20364;-82
2024/03/11 02:10:15;;;;;;;0.90;0.90;;;;;;;;;;5094116;28;20044;-83
2024/03/11 02:12:42;;;;;;;0.65;0.65;;;;;;;;;;5094337;28;20039;-83
2024/03/11 02:15:11;;;;;;;0.10;0.10;;;;;;;;;;5077358;28;20491;-82
2024/03/11 02:17:40;;;;;;;0.85;0.40;;;;;;;;;;5111127;28;20067;-83
2024/03/11 02:20:16;;;;;;;0.45;0.28;;;;;;;;;;5094180;28;20043;-83
2024/03/11 02:22:46;;;;;;;0.30;0.30;;;;;;;;;;5112534;28;20100;-82
2024/03/11 02:25:16;;;;;;;2.00;1.40;;;;;;;;;;5094123;28;20043;-82
2024/03/11 02:27:42;;;;;;;0.22;0.22;;;;;;;;;;5077259;28;20551;-82
2024/03/11 02:30:08;;;;;;;0.68;0.68;;;;;;;;;;5111101;28;20386;-83
2024/03/11 02:32:35;;;;;;;0.10;0.10;;;;;;;;;;5112145;28;20495;-82
2024/03/11 02:35:01;;;;;;;0.70;0.25;;;;;;;;;;5077347;28;20127;-82
2024/03/11 02:37:27;;;;;;;0.20;0.20;;;;;;;;;;5077137;28;20044;-82
2024/03/11 02:39:53;;;;;;;0.85;0.85;;;;;;;;;;5093830;28;20036;-82
2024/03/11 02:42:19;;;;;;;0.20;0.20;;;;;;;;;;5094209;28;20046;-83
2024/03/11 02:44:45;;;;;;;0.60;0.60;;;;;;;;;;5110751;28;20498;-83
2024/03/11 02:47:11;;;;;;;0.43;0.20;;;;;;;;;;5110639;28;20088;-83
2024/03/11 02:49:37;;;;;;;0.20;0.20;;;;;;;;;;5114160;28;20050;-83
2024/03/11 02:52:03;;;;;;;0.22;0.22;;;;;;;;;;5097829;28;20400;-83
2024/03/11 02:54:29;;;;;;;0.10;0.10;;;;;;;;;;5080645;28;20056;-83
2024/03/11 02:56:56;;;;;;;0.95;0.57;;;;;;;;;;5097410;28;20039;-83
2024/03/11 02:59:22;;;;;;;0.70;0.45;;;;;;;;;;5097406;28;20043;-82
2024/03/11 03:01:48;;;;;;;0.10;0.10;;;;;;;;;;5097048;28;20047;-83
2024/03/11 03:04:14;;;;;;;1.02;0.50;;;;;;;;;;5080601;28;20144;-83
2024/03/11 03:06:40;;;;;;;0.20;0.20;;;;;;;;;;5080346;28;20043;-83
2024/03/11 03:09:06;;;;;;;0.10;0.10;;;;;;;;;;5080511;28;20043;-82
2024/03/11 03:11:32;;;;;;;0.45;0.45;;;;;;;;;;5097194;28;20036;-83
2024/03/11 03:13:59;;;;;;;0.30;0.28;;;;;;;;;;5080623;28;20441;-83
2024/03/11 03:16:25;;;;;;;0.20;0.20;;;;;;;;;;5097043;28;20157;-83
2024/03/11 03:18:51;;;;;;;0.65;0.65;;;;;;;;;;5113939;28;20475;-83
2024/03/11 03:21:17;;;;;;;0.55;0.30;;;;;;;;;;5096856;28;20093;-83
2024/03/11 03:23:43;;;;;;;0.20;0.20;;;;;;;;;;5113834;28;20088;-82
2024/03/11 03:26:09;;;;;;;0.50;0.50;;;;;;;;;;5097145;28;20043;-83
2024/03/11 03:28:37;;;;;;;0.25;0.25;;;;;;;;;;5113813;28;20043;-82
2024/03/11 03:31:04;;;;;;;0.40;0.40;;;;;;;;;;5079888;28;20407;-81
2024/03/11 03:33:30;;;;;;;1.05;0.80;;;;;;;;;;5113663;28;20491;-83
2024/03/11 03:35:58;;;;;;;0.40;0.40;;;;;;;;;;5096578;28;20040;-83
2024/03/11 03:38:24;;;;;;;0.10;0.10;;;;;;;;;;5113765;28;20122;-82
2024/03/11 03:40:50;;;;;;;0.30;0.30;;;;;;;;;;5113479;28;20042;-82
2024/03/11 03:43:16;;;;;;;0.40;0.40;;;;;;;;;;5096807;28;20464;-81
2024/03/11 03:45:44;;;;;;;0.47;0.35;;;;;;;;;;5096365;28;20066;-81
2024/03/11 03:48:10;;;;;;;0.20;0.20;;;;;;;;;;5097154;28;20079;-82
2024/03/11 03:50:37;;;;;;;1.15;0.43;;;;;;;;;;5114786;28;20447;-81
2024/03/11 03:53:03;;;;;;;0.28;0.28;;;;;;;;;;5113276;28;20050;-82
2024/03/11 03:55:29;;;;;;;0.20;0.20;;;;;;;;;;5114552;28;20043;-81
2024/03/11 03:57:55;;;;;;;0.10;0.10;;;;;;;;;;5113130;28;20084;-81
2024/03/11 04:00:22;;;;;;;0.47;0.47;;;;;;;;;;5112341;28;20042;-82
2024/03/11 04:02:51;;;;;;;0.20;0.20;;;;;;;;;;5112846;28;20048;-81
2024/03/11 04:05:18;;;;;;;0.40;0.40;;;;;;;;;;5096215;28;20036;-82
2024/03/11 04:07:44;;;;;;;0.20;0.20;;;;;;;;;;5079511;28;20070;-83
2024/03/11 04:10:17;;;;;;;0.57;0.20;;;;;;;;;;5096194;28;20130;-83
2024/03/11 04:12:44;;;;;;;0.32;0.32;;;;;;;;;;5079969;28;20093;-82
2024/03/11 04:15:14;;;;;;;0.30;0.30;;;;;;;;;;5079734;28;20058;-82
2024/03/11 04:17:40;;;;;;;0.63;0.63;;;;;;;;;;5114233;28;20118;-82
2024/03/11 04:20:13;;;;;;;0.38;0.38;;;;;;;;;;5079133;28;20036;-82
2024/03/11 04:22:46;;;;;;;1.30;0.70;;;;;;;;;;5097159;28;20067;-82
2024/03/11 04:25:15;;;;;;;0.20;0.20;;;;;;;;;;5113906;28;20039;-82
2024/03/11 04:27:42;;;;;;;0.75;0.75;;;;;;;;;;5114234;28;20058;-82
2024/03/11 04:30:08;;;;;;;0.17;0.17;;;;;;;;;;5095708;28;20122;-82
2024/03/11 04:32:35;;;;;;;0.85;0.65;;;;;;;;;;5112791;28;20031;-82
2024/03/11 04:35:03;;;;;;;0.38;0.35;;;;;;;;;;5078678;28;20035;-82
2024/03/11 04:37:29;;;;;;;0.35;0.35;;;;;;;;;;5095917;28;20376;-81
2024/03/11 04:39:55;;;;;;;0.55;0.40;;;;;;;;;;5078592;28;20036;-83
2024/03/11 04:42:21;;;;;;;0.15;0.15;;;;;;;;;;5113771;27;20031;-82
2024/03/11 04:44:47;;;;;;;0.47;0.47;;;;;;;;;;5095329;28;20043;-83
2024/03/11 04:47:14;;;;;;;0.90;0.63;;;;;;;;;;5095818;28;20089;-83
2024/03/11 04:49:41;;;;;;;0.20;0.20;;;;;;;;;;5112593;28;20391;-83
2024/03/11 04:52:08;;;;;;;0.20;0.20;;;;;;;;;;5095547;28;20414;-83
2024/03/11 04:54:34;;;;;;;0.73;0.60;;;;;;;;;;5095260;28;20245;-83
2024/03/11 04:57:03;;;;;;;2.42;0.73;;;;;;;;;;5095393;28;20249;-83
2024/03/11 04:59:29;;;;;;;0.75;0.75;;;;;;;;;;5095259;28;20035;-83
2024/03/11 05:01:55;;;;;;;0.75;0.75;;;;;;;;;;5078306;28;20047;-82
2024/03/11 05:04:21;;;;;;;0.32;0.32;;;;;;;;;;5112276;28;20420;-83
2024/03/11 05:06:47;;;;;;;0.38;0.30;;;;;;;;;;5112019;28;20053;-83
2024/03/11 05:09:15;;;;;;;0.10;0.10;;;;;;;;;;5112278;28;20039;-83
2024/03/11 05:11:41;;;;;;;0.55;0.55;;;;;;;;;;5077934;28;20039;-83
2024/03/11 05:14:07;;;;;;;0.30;0.30;;;;;;;;;;5078016;28;20501;-83
2024/03/11 05:16:33;;;;;;;0.10;0.10;;;;;;;;;;5077823;28;20079;-83
2024/03/11 05:18:59;;;;;;;0.10;0.10;;;;;;;;;;5078273;28;20093;-83
2024/03/11 05:21:26;;;;;;;0.32;0.32;;;;;;;;;;5077942;28;20146;-82
2024/03/11 05:23:52;;;;;;;0.82;0.82;;;;;;;;;;5077861;28;20046;-82
2024/03/11 05:26:20;;;;;;;0.20;0.20;;;;;;;;;;5094693;28;20458;-86
2024/03/11 05:28:46;;;;;;;0.57;0.57;;;;;;;;;;5094756;28;20456;-83
2024/03/11 05:31:12;;;;;;;0.20;0.20;;;;;;;;;;5095349;28;20035;-83
2024/03/11 05:33:40;;;;;;;0.28;0.28;;;;;;;;;;5094727;28;20388;-83
2024/03/11 05:36:06;;;;;;;0.10;0.10;;;;;;;;;;5094347;28;20039;-83
2024/03/11 05:38:32;;;;;;;0.25;0.25;;;;;;;;;;5112662;28;20035;-83
2024/03/11 05:40:58;;;;;;;0.20;0.20;;;;;;;;;;5111599;28;20039;-81
2024/03/11 05:43:24;;;;;;;0.38;0.38;;;;;;;;;;5094705;28;20031;-82
2024/03/11 05:45:50;;;;;;;0.25;0.20;;;;;;;;;;5094374;28;20135;-82
2024/03/11 05:48:18;;;;;;;0.40;0.40;;;;;;;;;;5094639;28;20180;-82
2024/03/11 05:50:45;;;;;;;0.70;0.57;;;;;;;;;;5094399;28;20048;-82
2024/03/11 05:53:12;;;;;;;0.55;0.52;;;;;;;;;;5094400;28;20130;-83
2024/03/11 05:55:41;;;;;;;0.10;0.10;;;;;;;;;;5111327;28;20101;-81
2024/03/11 05:58:14;;;;;;;0.10;0.10;;;;;;;;;;5077882;28;20224;-82
2024/03/11 06:00:43;;;;;;;0.30;0.30;;;;;;;;;;5078199;28;20497;-82
2024/03/11 06:03:10;;;;;;;0.25;0.25;;;;;;;;;;5093835;28;20067;-82
2024/03/11 06:05:36;;;;;;;0.20;0.20;;;;;;;;;;5094626;28;20372;-82
2024/03/11 06:08:02;;;;;;;0.52;0.52;;;;;;;;;;5077373;28;20036;-82
2024/03/11 06:10:28;;;;;;;0.65;0.45;;;;;;;;;;5112242;28;20114;-82
2024/03/11 06:12:55;;;;;;;0.63;0.63;;;;;;;;;;5094130;28;20044;-82
2024/03/11 06:15:22;;;;;;;2.92;1.13;;;;;;;;;;5110962;28;20040;-82
2024/03/11 06:17:48;;;;;;;0.10;0.10;;;;;;;;;;5094305;28;20075;-83
2024/03/11 06:20:14;;;;;;;0.60;0.60;;;;;;;;;;5094517;28;20461;-82
2024/03/11 06:22:40;;;;;;;0.10;0.10;;;;;;;;;;5094337;28;20044;-83
2024/03/11 06:25:07;;;;;;;0.28;0.28;;;;;;;;;;5096953;28;20451;-83
2024/03/11 06:27:33;;;;;;;0.65;0.45;;;;;;;;;;5081191;28;20035;-83
2024/03/11 06:30:00;;;;;;;0.75;0.73;;;;;;;;;;5114816;28;20127;-82
2024/03/11 06:32:30;;;;;;;0.10;0.10;;;;;;;;;;5114816;28;20047;-83
2024/03/11 06:34:57;;;;;;;0.20;0.20;;;;;;;;;;5097691;28;20067;-83
2024/03/11 06:37:23;;;;;;;1.08;0.28;;;;;;;;;;5097844;28;20035;-83
2024/03/11 06:39:50;;;;;;;0.13;0.13;;;;;;;;;;5097804;28;20031;-83
2024/03/11 06:42:16;;;;;;;0.17;0.17;;;;;;;;;;5097889;28;20491;-83
2024/03/11 06:44:43;;;;;;;0.20;0.20;;;;;;;;;;5114555;28;20043;-83
2024/03/11 06:47:09;;;;;;;0.10;0.10;;;;;;;;;;5097656;28;20035;-83
2024/03/11 06:49:37;;;;;;;0.20;0.20;;;;;;;;;;5097549;28;20102;-84
2024/03/11 06:52:03;;;;;;;0.73;0.73;;;;;;;;;;5115857;28;20440;-83
2024/03/11 06:54:30;;;;;;;0.20;0.20;;;;;;;;;;5080645;28;20100;-83
2024/03/11 06:56:56;;;;;;;0.32;0.32;;;;;;;;;;5114508;28;20047;-82
2024/03/11 06:59:25;;;;;;;0.93;0.85;;;;;;;;;;5115560;28;20268;-83
2024/03/11 07:01:51;;;;;;;0.20;0.20;;;;;;;;;;5115484;28;20056;-83
2024/03/11 07:04:17;;;;;;;1.15;0.57;;;;;;;;;;5080672;28;20044;-84
2024/03/11 07:06:44;;;;;;;0.10;0.10;;;;;;;;;;5097316;28;20139;-83
2024/03/11 07:09:11;;;;;;;0.20;0.20;;;;;;;;;;5097659;28;20611;-83
2024/03/11 07:11:37;;;;;;;0.10;0.10;;;;;;;;;;5080334;28;20036;-82
2024/03/11 07:14:04;;;;;;;0.20;0.20;;;;;;;;;;5114033;28;20043;-83
2024/03/11 07:16:31;;;;;;;0.52;0.52;;;;;;;;;;5097040;28;20046;-83
2024/03/11 07:18:59;;;;;;;0.80;0.80;;;;;;;;;;5080390;28;20035;-82
2024/03/11 07:21:27;;;;;;;0.32;0.32;;;;;;;;;;5080241;28;20042;-82
2024/03/11 07:23:55;;;;;;;0.57;0.57;;;;;;;;;;5080580;28;20044;-84
2024/03/11 07:26:22;;;;;;;0.20;0.20;;;;;;;;;;5080054;28;20580;-82
2024/03/11 07:28:48;;;;;;;0.82;0.82;;;;;;;;;;5097230;28;20127;-83
2024/03/11 07:31:14;;;;;;;0.10;0.10;;;;;;;;;;5096784;28;20040;-83
2024/03/11 07:33:40;;;;;;;0.25;0.20;;;;;;;;;;5096686;28;20088;-83
2024/03/11 07:36:07;;;;;;;0.30;0.20;;;;;;;;;;5096427;28;20449;-82
2024/03/11 07:38:33;;;;;;;0.30;0.30;;;;;;;;;;5113694;28;20067;-83
2024/03/11 07:41:01;;;;;;;0.10;0.10;;;;;;;;;;5079846;28;20036;-83
2024/03/11 07:43:28;;;;;;;0.10;0.10;;;;;;;;;;5113748;28;20386;-84
2024/03/11 07:45:54;;;;;;;0.38;0.38;;;;;;;;;;5079922;28;20126;-83
2024/03/11 07:48:22;;;;;;;0.30;0.30;;;;;;;;;;5079863;28;20126;-84
2024/03/11 07:50:49;;;;;;;0.57;0.43;;;;;;;;;;5096527;28;20131;-84
2024/03/11 07:53:16;;;;;;;0.40;0.40;;;;;;;;;;5096767;28;20040;-85
2024/03/11 07:55:42;;;;;;;0.95;0.85;;;;;;;;;;5096676;28;20360;-85
2024/03/11 07:58:08;;;;;;;0.20;0.20;;;;;;;;;;5079446;28;20463;-84
2024/03/11 08:00:38;;;;;;;0.43;0.43;;;;;;;;;;5096318;28;20125;-85
2024/03/11 08:03:05;;;;;;;0.10;0.10;;;;;;;;;;5113012;28;20051;-85
2024/03/11 08:05:34;;;;;;;0.20;0.20;;;;;;;;;;5096234;28;20047;-84
2024/03/11 08:08:01;;;;;;;2.08;0.38;;;;;;;;;;5094618;28;20111;-85
2024/03/11 08:10:29;;;;;;;0.95;0.30;;;;;;;;;;5112007;28;20079;-85
2024/03/11 08:12:58;;;;;;;0.40;0.35;;;;;;;;;;5078932;28;20089;-84
2024/03/11 08:15:24;;;;;;;0.30;0.30;;;;;;;;;;5112478;28;20043;-84
2024/03/11 08:17:50;;;;;;;0.25;0.25;;;;;;;;;;5075210;28;20032;-84
2024/03/11 08:20:17;;;;;;;0.20;0.20;;;;;;;;;;5108868;28;20391;-85
2024/03/11 08:22:47;;;;;;;0.38;0.38;;;;;;;;;;5095455;28;20104;-85
2024/03/11 08:25:15;;;;;;;0.32;0.32;;;;;;;;;;5095831;28;20039;-85
2024/03/11 08:27:41;;;;;;;0.52;0.40;;;;;;;;;;5075295;28;20548;-84
2024/03/11 08:30:09;;;;;;;0.65;0.47;;;;;;;;;;5058885;28;20044;-84
2024/03/11 08:32:35;;;;;;;0.25;0.20;;;;;;;;;;5095161;28;20039;-85
2024/03/11 08:35:01;;;;;;;1.05;0.75;;;;;;;;;;5095945;28;20127;-85
2024/03/11 08:37:27;;;;;;;0.10;0.10;;;;;;;;;;5079033;28;20122;-84
2024/03/11 08:39:53;;;;;;;0.43;0.43;;;;;;;;;;5113195;28;20028;-84
2024/03/11 08:42:20;;;;;;;1.23;0.32;;;;;;;;;;5096847;28;20043;-85
2024/03/11 08:44:47;;;;;;;6.63;0.60;;;;;;;;;;5079919;28;20044;-84
2024/03/11 08:47:13;;;;;;;0.10;0.10;;;;;;;;;;5094904;28;20119;-83
2024/03/11 08:49:39;;;;;;;0.88;0.88;;;;;;;;;;5095533;28;20075;-84
2024/03/11 08:52:12;;;;;;;0.10;0.10;;;;;;;;;;5094428;28;20046;-84
2024/03/11 08:54:40;;;;;;;0.73;0.73;;;;;;;;;;5096111;28;20467;-84
2024/03/11 08:57:08;;;;;;;0.32;0.30;;;;;;;;;;5079084;28;20043;-84
2024/03/11 08:59:35;;;;;;;1.60;1.42;;;;;;;;;;5096538;28;20058;-83
2024/03/11 09:02:01;;;;;;;1.52;1.42;;;;;;;;;;5112842;28;20199;-84
2024/03/11 09:04:28;;;;;;;1.45;0.88;;;;;;;;;;5097611;28;20118;-83
2024/03/11 09:06:56;;;;;;;0.50;0.50;;;;;;;;;;5077632;28;20093;-84
2024/03/11 09:09:26;;;;;;;0.30;0.30;;;;;;;;;;5107533;28;20361;-84
2024/03/11 09:11:58;;;;;;;0.38;0.38;;;;;;;;;;5094672;28;20048;-84
2024/03/11 09:14:28;;;;;;;5.72;0.85;;;;;;;;;;5111382;28;20050;-84
2024/03/11 09:16:54;;;;;;;0.20;0.20;;;;;;;;;;5094556;28;20089;-84
2024/03/11 09:19:21;;;;;;;0.20;0.20;;;;;;;;;;5078131;28;20040;-84
2024/03/11 09:21:49;;;;;;;1.17;0.70;;;;;;;;;;5094639;28;20131;-84
2024/03/11 09:24:16;;;;;;;0.10;0.10;;;;;;;;;;5110739;28;20521;-84
2024/03/11 09:26:42;;;;;;;0.28;0.28;;;;;;;;;;5094756;28;20036;-84
2024/03/11 09:29:11;;;;;;;0.30;0.30;;;;;;;;;;5093752;28;20035;-84
2024/03/11 09:31:38;;;;;;;0.40;0.40;;;;;;;;;;5094787;28;20152;-84
2024/03/11 09:34:05;;;;;;;1.20;0.63;;;;;;;;;;5111757;28;20215;-84
2024/03/11 09:36:31;;;;;;;0.65;0.38;;;;;;;;;;5077953;28;20133;-83
2024/03/11 09:38:57;;;;;;;0.20;0.20;;;;;;;;;;5110998;28;20042;-84
2024/03/11 09:41:23;;;;;;;0.25;0.20;;;;;;;;;;5094479;28;20032;-83
2024/03/11 09:43:49;;;;;;;0.73;0.32;;;;;;;;;;5073787;28;20052;-83
2024/03/11 09:46:20;;;;;;;0.30;0.30;;;;;;;;;;5079166;28;20038;-83
2024/03/11 09:48:48;;;;;;;0.20;0.20;;;;;;;;;;5057757;28;20487;-82
2024/03/11 09:51:15;;;;;;;0.20;0.20;;;;;;;;;;5090955;28;20036;-82
2024/03/11 09:53:41;;;;;;;0.47;0.28;;;;;;;;;;5057631;28;20040;-83
2024/03/11 09:56:08;;;;;;;0.20;0.20;;;;;;;;;;5092826;28;20395;-84
2024/03/11 09:58:36;;;;;;;1.08;0.98;;;;;;;;;;5111010;28;20040;-84
2024/03/11 10:01:02;;;;;;;1.55;0.30;;;;;;;;;;5115643;28;20044;-85
2024/03/11 10:03:32;;;;;;;1.40;0.75;;;;;;;;;;5115332;28;20056;-84
2024/03/11 10:05:58;;;;;;;0.20;0.20;;;;;;;;;;5115447;28;20100;-84
2024/03/11 10:08:25;;;;;;;0.52;0.30;;;;;;;;;;5081527;28;20044;-85
2024/03/11 10:11:11;;;;;;;0.40;0.40;;;;;;;;;;5114837;28;20050;-85
2024/03/11 10:13:37;;;;;;;0.50;0.50;;;;;;;;;;5079800;28;20112;-84
2024/03/11 10:16:14;;;;;;;0.55;0.55;;;;;;;;;;5109813;28;20052;-84
2024/03/11 10:18:48;;;;;;;0.88;0.38;;;;;;;;;;5076751;28;20028;-85
2024/03/11 10:21:19;;;;;;;0.20;0.20;;;;;;;;;;5077750;28;20040;-85
2024/03/11 10:23:48;;;;;;;0.50;0.50;;;;;;;;;;5077822;28;20247;-86
2024/03/11 10:26:24;;;;;;;0.20;0.20;;;;;;;;;;5077282;28;20071;-83
2024/03/11 10:28:50;;;;;;;0.75;0.60;;;;;;;;;;5077703;28;20044;-83
2024/03/11 10:31:20;;;;;;;0.35;0.35;;;;;;;;;;5077481;28;20067;-83
2024/03/11 10:33:47;;;;;;;0.40;0.40;;;;;;;;;;5080524;28;20031;-85
2024/03/11 10:36:15;;;;;;;0.93;0.90;;;;;;;;;;5097745;28;20050;-84
2024/03/11 10:38:43;;;;;;;0.10;0.10;;;;;;;;;;5097008;28;20092;-84
2024/03/11 10:41:20;;;;;;;0.65;0.47;;;;;;;;;;5114059;28;20043;-84
2024/03/11 10:43:47;;;;;;;0.52;0.38;;;;;;;;;;5098028;28;20496;-85
2024/03/11 10:46:20;;;;;;;0.20;0.20;;;;;;;;;;5097726;28;20043;-84
2024/03/11 10:48:47;;;;;;;0.20;0.20;;;;;;;;;;5114750;28;20122;-85
2024/03/11 10:51:13;;;;;;;0.52;0.52;;;;;;;;;;5097674;28;20039;-84
2024/03/11 10:53:42;;;;;;;1.35;0.60;;;;;;;;;;5097633;28;20118;-88
2024/03/11 10:56:10;;;;;;;0.20;0.20;;;;;;;;;;5077231;28;20040;-85
2024/03/11 10:58:35;;;;;;;1.60;0.22;;;;;;;;;;5074487;28;20040;-84
2024/03/11 11:01:03;;;;;;;0.35;0.35;;;;;;;;;;5112125;28;20032;-84
2024/03/11 11:03:29;;;;;;;0.20;0.20;;;;;;;;;;5098021;28;20051;-85
2024/03/11 11:06:09;;;;;;;0.30;0.20;;;;;;;;;;5098448;28;20522;-85
2024/03/11 11:08:37;;;;;;;0.20;0.20;;;;;;;;;;5081639;28;20047;-83
2024/03/11 11:11:03;;;;;;;0.88;0.50;;;;;;;;;;5079682;28;20084;-85
2024/03/11 11:13:29;;;;;;;0.90;0.40;;;;;;;;;;5113102;28;20047;-84
2024/03/11 11:15:58;;;;;;;1.30;0.52;;;;;;;;;;5076377;28;20072;-83
2024/03/11 11:18:26;;;;;;;0.63;0.40;;;;;;;;;;5093885;28;20088;-84
2024/03/11 11:20:52;;;;;;;0.45;0.45;;;;;;;;;;5077507;28;20100;-84
2024/03/11 11:23:34;;;;;;;0.50;0.50;;;;;;;;;;5093371;28;20032;-81
2024/03/11 11:26:01;;;;;;;0.22;0.22;;;;;;;;;;5077534;28;20475;-83
2024/03/11 11:28:28;;;;;;;0.85;0.30;;;;;;;;;;5093503;28;20097;-84
2024/03/11 11:31:13;;;;;;;2.17;1.33;;;;;;;;;;5093701;28;20506;-82
2024/03/11 11:33:53;;;;;;;1.67;1.35;;;;;;;;;;5093409;28;20048;-83
2024/03/11 11:36:39;;;;;;;0.47;0.47;;;;;;;;;;5077095;28;20043;-84
2024/03/11 11:39:17;;;;;;;0.10;0.10;;;;;;;;;;5076598;28;20585;-83
2024/03/11 11:41:46;;;;;;;4.43;0.60;;;;;;;;;;5093254;28;20476;-83
2024/03/11 11:44:28;;;;;;;1.20;0.50;;;;;;;;;;5076737;28;20432;-84
2024/03/11 11:46:54;;;;;;;0.70;0.30;;;;;;;;;;5076343;28;20036;-83
2024/03/11 11:49:24;;;;;;;0.77;0.77;;;;;;;;;;5076181;28;20049;-83
2024/03/11 11:51:53;;;;;;;0.30;0.30;;;;;;;;;;5076183;28;20043;-83
2024/03/11 11:54:22;;;;;;;0.20;0.20;;;;;;;;;;5075936;28;20047;-83
2024/03/11 11:56:49;;;;;;;0.30;0.20;;;;;;;;;;5092824;28;20476;-84
2024/03/11 11:59:20;;;;;;;0.20;0.20;;;;;;;;;;5092772;28;20074;-83
2024/03/11 12:01:48;;;;;;;1.95;1.30;;;;;;;;;;5059357;28;20548;-83
2024/03/11 12:04:14;;;;;;;0.20;0.20;;;;;;;;;;5076070;28;20079;-83
2024/03/11 12:06:40;;;;;;;0.85;0.30;;;;;;;;;;5092957;28;20395;-83
2024/03/11 12:09:12;;;;;;;0.40;0.40;;;;;;;;;;5092637;28;20140;-83
2024/03/11 12:11:45;;;;;;;0.47;0.47;;;;;;;;;;5076878;28;20200;-84
2024/03/11 12:14:11;;;;;;;0.20;0.20;;;;;;;;;;5092571;28;20101;-83
2024/03/11 12:16:38;;;;;;;4.53;0.60;;;;;;;;;;5059133;28;20044;-83
2024/03/11 12:19:06;;;;;;;0.20;0.20;;;;;;;;;;5075781;28;20192;-83
2024/03/11 12:21:33;;;;;;;0.30;0.30;;;;;;;;;;5058051;28;20036;-83
2024/03/11 12:24:01;;;;;;;0.20;0.20;;;;;;;;;;5075685;28;20047;-83
2024/03/11 12:26:27;;;;;;;0.45;0.28;;;;;;;;;;5092347;28;20044;-83
2024/03/11 12:29:03;;;;;;;0.10;0.10;;;;;;;;;;5092317;28;20572;-83
2024/03/11 12:31:32;;;;;;;0.20;0.20;;;;;;;;;;5093717;28;20071;-83
2024/03/11 12:34:17;;;;;;;1.48;1.38;;;;;;;;;;5093685;28;20075;-83
2024/03/11 12:36:46;;;;;;;3.15;1.40;;;;;;;;;;5075522;28;20145;-83
2024/03/11 12:39:25;;;;;;;0.28;0.28;;;;;;;;;;5076083;28;20036;-83
2024/03/11 12:41:51;;;;;;;0.40;0.40;;;;;;;;;;5076627;28;20134;-84
2024/03/11 12:44:18;;;;;;;0.50;0.40;;;;;;;;;;5092199;28;20039;-83
2024/03/11 12:46:45;;;;;;;0.25;0.25;;;;;;;;;;5091976;28;20047;-83
2024/03/11 12:49:11;;;;;;;0.20;0.20;;;;;;;;;;5091878;28;20483;-82
2024/03/11 12:51:41;;;;;;;0.20;0.20;;;;;;;;;;5074986;28;20039;-82
2024/03/11 12:54:12;;;;;;;0.40;0.35;;;;;;;;;;5074955;28;20044;-83
2024/03/11 12:56:39;;;;;;;0.20;0.20;;;;;;;;;;5091687;28;20075;-82
2024/03/11 12:59:13;;;;;;;0.30;0.30;;;;;;;;;;5091798;28;20079;-84
2024/03/11 13:01:41;;;;;;;1.17;1.10;;;;;;;;;;5075318;28;20480;-83
2024/03/11 13:04:21;;;;;;;0.45;0.45;;;;;;;;;;5058565;28;20043;-83
2024/03/11 13:06:47;;;;;;;1.60;0.47;;;;;;;;;;5074695;28;20097;-83
2024/03/11 13:09:27;;;;;;;0.73;0.73;;;;;;;;;;5074755;28;20043;-83
2024/03/11 13:11:59;;;;;;;0.75;0.75;;;;;;;;;;5074901;28;20118;-83
2024/03/11 13:14:26;;;;;;;0.50;0.50;;;;;;;;;;5058641;28;20112;-84
2024/03/11 13:16:53;;;;;;;0.30;0.30;;;;;;;;;;5074476;28;20044;-84
2024/03/11 13:19:25;;;;;;;0.28;0.28;;;;;;;;;;5074514;28;20495;-83
2024/03/11 13:21:51;;;;;;;0.20;0.20;;;;;;;;;;5091324;28;20036;-84
2024/03/11 13:24:19;;;;;;;0.20;0.20;;;;;;;;;;5091377;28;20044;-84
2024/03/11 13:26:48;;;;;;;0.40;0.30;;;;;;;;;;5074326;28;20149;-82
2024/03/11 13:29:14;;;;;;;0.30;0.30;;;;;;;;;;5074355;28;20040;-83
2024/03/11 13:31:41;;;;;;;0.30;0.30;;;;;;;;;;5057741;28;20040;-83
2024/03/11 13:34:08;;;;;;;0.38;0.38;;;;;;;;;;5074396;28;20119;-84
2024/03/11 13:36:34;;;;;;;0.20;0.20;;;;;;;;;;5091161;28;20053;-84
2024/03/11 13:39:00;;;;;;;0.13;0.13;;;;;;;;;;5057874;28;20067;-83
2024/03/11 13:41:27;;;;;;;0.32;0.32;;;;;;;;;;5057682;28;20513;-84
2024/03/11 13:43:53;;;;;;;0.25;0.25;;;;;;;;;;5091126;28;20067;-84
2024/03/11 13:46:20;;;;;;;0.20;0.20;;;;;;;;;;5074156;28;20044;-84
2024/03/11 13:48:46;;;;;;;0.77;0.77;;;;;;;;;;5074392;28;20087;-84
2024/03/11 13:51:15;;;;;;;0.63;0.47;;;;;;;;;;5057389;28;20040;-83
2024/03/11 13:53:42;;;;;;;0.13;0.13;;;;;;;;;;5057781;28;20123;-83
2024/03/11 13:56:10;;;;;;;0.30;0.30;;;;;;;;;;5057787;28;20044;-84
2024/03/11 13:58:36;;;;;;;0.90;0.70;;;;;;;;;;5074007;28;20098;-84
2024/03/11 14:01:02;;;;;;;0.60;0.60;;;;;;;;;;5074115;28;20593;-83
2024/03/11 14:03:28;;;;;;;0.43;0.43;;;;;;;;;;5057366;28;20299;-83
2024/03/11 14:05:56;;;;;;;0.15;0.15;;;;;;;;;;5074082;28;20198;-83
2024/03/11 14:08:22;;;;;;;0.25;0.25;;;;;;;;;;5091042;28;20396;-84
2024/03/11 14:10:49;;;;;;;0.68;0.68;;;;;;;;;;5057317;28;20048;-83
2024/03/11 14:13:17;;;;;;;0.20;0.20;;;;;;;;;;5074334;28;20036;-84
2024/03/11 14:15:43;;;;;;;0.30;0.30;;;;;;;;;;5057453;28;20047;-84
2024/03/11 14:18:09;;;;;;;0.40;0.40;;;;;;;;;;5090705;28;20090;-83
2024/03/11 14:20:36;;;;;;;6.55;0.57;;;;;;;;;;5057265;28;20044;-84
2024/03/11 14:23:02;;;;;;;0.63;0.63;;;;;;;;;;5090710;28;20036;-84
2024/03/11 14:25:32;;;;;;;0.10;0.10;;;;;;;;;;5090817;28;20044;-84
2024/03/11 14:27:59;;;;;;;0.35;0.35;;;;;;;;;;5074627;28;20047;-83
2024/03/11 14:30:25;;;;;;;0.75;0.75;;;;;;;;;;5074098;28;20083;-83
2024/03/11 14:32:54;;;;;;;0.40;0.40;;;;;;;;;;5073843;28;20079;-84
2024/03/11 14:35:20;;;;;;;1.05;0.85;;;;;;;;;;5073790;28;20105;-84
2024/03/11 14:37:46;;;;;;;1.55;0.55;;;;;;;;;;5074086;28;20075;-84
2024/03/11 14:40:31;;;;;;;0.20;0.20;;;;;;;;;;5073942;28;20119;-84
2024/03/11 14:43:00;;;;;;;0.45;0.43;;;;;;;;;;5059285;28;20129;-83
2024/03/11 14:45:28;;;;;;;0.50;0.40;;;;;;;;;;5075380;28;20093;-83